sensor_id;sensor_type;location;lat;lon;timestamp;P1;durP1;ratioP1;P2;durP2;ratioP2
19183;SDS011;9724;51.194;6.856;2024-03-23T00:55:13;18.77;;;4.43;;
19183;SDS011;9724;51.194;6.856;2024-03-23T00:57:39;14.33;;;4.07;;
19183;SDS011;9724;51.194;6.856;2024-03-23T01:00:05;17.03;;;4.60;;
19183;SDS011;9724;51.194;6.856;2024-03-23T01:02:35;23.67;;;4.47;;
19183;SDS011;9724;51.194;6.856;2024-03-23T01:05:01;21.23;;;4.20;;
19183;SDS011;9724;51.194;6.856;2024-03-23T01:07:27;21.87;;;5.20;;
19183;SDS011;9724;51.194;6.856;2024-03-23T01:09:53;19.13;;;4.40;;
19183;SDS011;9724;51.194;6.856;2024-03-23T01:12:20;19.50;;;4.33;;
19183;SDS011;9724;51.194;6.856;2024-03-23T01:14:47;22.10;;;4.30;;
19183;SDS011;9724;51.194;6.856;2024-03-23T01:17:13;13.40;;;3.70;;
19183;SDS011;9724;51.194;6.856;2024-03-23T01:19:39;19.17;;;4.60;;
19183;SDS011;9724;51.194;6.856;2024-03-23T01:22:07;19.57;;;4.07;;
19183;SDS011;9724;51.194;6.856;2024-03-23T01:24:33;19.77;;;3.97;;
19183;SDS011;9724;51.194;6.856;2024-03-23T01:26:59;17.33;;;3.67;;
19183;SDS011;9724;51.194;6.856;2024-03-23T01:29:26;18.47;;;4.07;;
19183;SDS011;9724;51.194;6.856;2024-03-23T01:31:52;24.13;;;4.30;;
19183;SDS011;9724;51.194;6.856;2024-03-23T01:34:18;18.37;;;3.93;;
19183;SDS011;9724;51.194;6.856;2024-03-23T01:36:46;17.50;;;3.73;;
19183;SDS011;9724;51.194;6.856;2024-03-23T01:39:12;13.23;;;3.37;;
19183;SDS011;9724;51.194;6.856;2024-03-23T01:41:39;14.30;;;3.87;;
19183;SDS011;9724;51.194;6.856;2024-03-23T01:44:07;14.53;;;3.57;;
19183;SDS011;9724;51.194;6.856;2024-03-23T01:46:34;14.90;;;2.70;;
19183;SDS011;9724;51.194;6.856;2024-03-23T01:49:00;9.10;;;1.93;;
19183;SDS011;9724;51.194;6.856;2024-03-23T01:51:27;11.27;;;2.33;;
19183;SDS011;9724;51.194;6.856;2024-03-23T01:53:53;9.90;;;2.30;;
19183;SDS011;9724;51.194;6.856;2024-03-23T01:56:20;8.90;;;1.80;;
19183;SDS011;9724;51.194;6.856;2024-03-23T01:58:46;6.53;;;1.43;;
19183;SDS011;9724;51.194;6.856;2024-03-23T02:01:12;9.17;;;2.23;;
19183;SDS011;9724;51.194;6.856;2024-03-23T02:03:39;5.80;;;2.23;;
19183;SDS011;9724;51.194;6.856;2024-03-23T02:06:05;9.23;;;2.30;;
19183;SDS011;9724;51.194;6.856;2024-03-23T02:08:32;10.40;;;2.27;;
19183;SDS011;9724;51.194;6.856;2024-03-23T02:10:59;6.13;;;2.10;;
19183;SDS011;9724;51.194;6.856;2024-03-23T02:13:25;9.00;;;2.10;;
19183;SDS011;9724;51.194;6.856;2024-03-23T02:15:52;8.03;;;2.00;;
19183;SDS011;9724;51.194;6.856;2024-03-23T02:18:18;8.23;;;1.80;;
19183;SDS011;9724;51.194;6.856;2024-03-23T02:20:45;6.23;;;1.83;;
19183;SDS011;9724;51.194;6.856;2024-03-23T02:23:14;7.87;;;2.00;;
19183;SDS011;9724;51.194;6.856;2024-03-23T02:25:41;7.63;;;2.10;;
19183;SDS011;9724;51.194;6.856;2024-03-23T02:28:07;14.13;;;2.10;;
19183;SDS011;9724;51.194;6.856;2024-03-23T02:30:33;9.10;;;2.00;;
19183;SDS011;9724;51.194;6.856;2024-03-23T02:32:59;9.07;;;2.17;;
19183;SDS011;9724;51.194;6.856;2024-03-23T02:35:25;6.67;;;1.97;;
19183;SDS011;9724;51.194;6.856;2024-03-23T02:37:51;9.97;;;2.20;;
19183;SDS011;9724;51.194;6.856;2024-03-23T02:40:19;9.30;;;2.00;;
19183;SDS011;9724;51.194;6.856;2024-03-23T02:42:45;10.13;;;1.80;;
19183;SDS011;9724;51.194;6.856;2024-03-23T02:45:12;10.60;;;1.90;;
19183;SDS011;9724;51.194;6.856;2024-03-23T02:47:38;7.77;;;2.10;;
19183;SDS011;9724;51.194;6.856;2024-03-23T02:50:05;4.47;;;1.77;;
19183;SDS011;9724;51.194;6.856;2024-03-23T02:52:31;10.47;;;1.83;;
19183;SDS011;9724;51.194;6.856;2024-03-23T02:54:57;7.87;;;2.23;;
19183;SDS011;9724;51.194;6.856;2024-03-23T02:57:24;10.40;;;1.80;;
19183;SDS011;9724;51.194;6.856;2024-03-23T02:59:50;7.03;;;2.03;;
19183;SDS011;9724;51.194;6.856;2024-03-23T03:02:16;11.90;;;2.30;;
19183;SDS011;9724;51.194;6.856;2024-03-23T03:04:42;6.87;;;2.53;;
19183;SDS011;9724;51.194;6.856;2024-03-23T03:07:08;11.00;;;2.50;;
19183;SDS011;9724;51.194;6.856;2024-03-23T03:09:34;10.80;;;2.70;;
19183;SDS011;9724;51.194;6.856;2024-03-23T03:12:01;5.73;;;2.00;;
19183;SDS011;9724;51.194;6.856;2024-03-23T03:14:28;10.53;;;2.70;;
19183;SDS011;9724;51.194;6.856;2024-03-23T03:16:54;19.17;;;2.80;;
19183;SDS011;9724;51.194;6.856;2024-03-23T03:19:20;7.33;;;2.27;;
19183;SDS011;9724;51.194;6.856;2024-03-23T03:21:46;10.90;;;2.83;;
19183;SDS011;9724;51.194;6.856;2024-03-23T03:24:13;11.03;;;3.50;;
19183;SDS011;9724;51.194;6.856;2024-03-23T03:26:39;15.73;;;2.93;;
19183;SDS011;9724;51.194;6.856;2024-03-23T03:29:05;10.47;;;2.50;;
19183;SDS011;9724;51.194;6.856;2024-03-23T03:31:32;10.33;;;2.87;;
19183;SDS011;9724;51.194;6.856;2024-03-23T03:33:58;11.33;;;2.80;;
19183;SDS011;9724;51.194;6.856;2024-03-23T03:36:24;11.37;;;2.63;;
19183;SDS011;9724;51.194;6.856;2024-03-23T03:38:50;8.77;;;2.80;;
19183;SDS011;9724;51.194;6.856;2024-03-23T03:41:16;7.17;;;2.57;;
19183;SDS011;9724;51.194;6.856;2024-03-23T03:43:42;9.57;;;2.60;;
19183;SDS011;9724;51.194;6.856;2024-03-23T03:46:08;9.10;;;2.60;;
19183;SDS011;9724;51.194;6.856;2024-03-23T03:48:36;9.63;;;2.27;;
19183;SDS011;9724;51.194;6.856;2024-03-23T03:51:03;8.20;;;2.20;;
19183;SDS011;9724;51.194;6.856;2024-03-23T03:53:29;12.00;;;2.30;;
19183;SDS011;9724;51.194;6.856;2024-03-23T03:55:55;10.27;;;2.47;;
19183;SDS011;9724;51.194;6.856;2024-03-23T03:58:22;10.13;;;2.60;;
19183;SDS011;9724;51.194;6.856;2024-03-23T04:00:48;7.03;;;2.03;;
19183;SDS011;9724;51.194;6.856;2024-03-23T04:03:14;15.77;;;2.27;;
19183;SDS011;9724;51.194;6.856;2024-03-23T04:05:41;5.47;;;2.40;;
19183;SDS011;9724;51.194;6.856;2024-03-23T04:08:07;13.83;;;2.57;;
19183;SDS011;9724;51.194;6.856;2024-03-23T04:10:33;8.50;;;2.37;;
19183;SDS011;9724;51.194;6.856;2024-03-23T04:13:00;8.43;;;2.07;;
19183;SDS011;9724;51.194;6.856;2024-03-23T04:15:26;12.70;;;2.37;;
19183;SDS011;9724;51.194;6.856;2024-03-23T04:17:52;8.33;;;2.50;;
19183;SDS011;9724;51.194;6.856;2024-03-23T04:20:19;10.03;;;2.73;;
19183;SDS011;9724;51.194;6.856;2024-03-23T04:22:45;13.17;;;2.30;;
19183;SDS011;9724;51.194;6.856;2024-03-23T04:25:12;9.60;;;2.30;;
19183;SDS011;9724;51.194;6.856;2024-03-23T04:27:39;7.93;;;2.30;;
19183;SDS011;9724;51.194;6.856;2024-03-23T04:30:06;10.30;;;2.97;;
19183;SDS011;9724;51.194;6.856;2024-03-23T04:32:36;12.10;;;2.50;;
19183;SDS011;9724;51.194;6.856;2024-03-23T04:35:03;8.60;;;2.30;;
19183;SDS011;9724;51.194;6.856;2024-03-23T04:37:31;8.90;;;2.63;;
19183;SDS011;9724;51.194;6.856;2024-03-23T04:39:59;4.30;;;1.80;;
19183;SDS011;9724;51.194;6.856;2024-03-23T04:42:25;12.00;;;2.70;;
19183;SDS011;9724;51.194;6.856;2024-03-23T04:44:51;7.97;;;3.03;;
19183;SDS011;9724;51.194;6.856;2024-03-23T04:47:17;9.10;;;2.07;;
19183;SDS011;9724;51.194;6.856;2024-03-23T04:49:44;4.67;;;2.40;;
19183;SDS011;9724;51.194;6.856;2024-03-23T04:52:10;9.00;;;2.17;;
19183;SDS011;9724;51.194;6.856;2024-03-23T04:54:36;11.40;;;2.20;;
19183;SDS011;9724;51.194;6.856;2024-03-23T04:57:03;6.77;;;2.20;;
19183;SDS011;9724;51.194;6.856;2024-03-23T04:59:29;8.67;;;2.10;;
19183;SDS011;9724;51.194;6.856;2024-03-23T05:01:55;12.90;;;2.50;;
19183;SDS011;9724;51.194;6.856;2024-03-23T05:04:21;8.90;;;2.30;;
19183;SDS011;9724;51.194;6.856;2024-03-23T05:06:47;18.33;;;2.53;;
19183;SDS011;9724;51.194;6.856;2024-03-23T05:09:13;10.97;;;2.77;;
19183;SDS011;9724;51.194;6.856;2024-03-23T05:11:39;7.23;;;2.40;;
19183;SDS011;9724;51.194;6.856;2024-03-23T05:14:06;14.23;;;3.23;;
19183;SDS011;9724;51.194;6.856;2024-03-23T05:16:32;9.70;;;2.33;;
19183;SDS011;9724;51.194;6.856;2024-03-23T05:18:58;10.63;;;2.60;;
19183;SDS011;9724;51.194;6.856;2024-03-23T05:21:24;17.03;;;2.63;;
19183;SDS011;9724;51.194;6.856;2024-03-23T05:23:50;13.93;;;2.47;;
19183;SDS011;9724;51.194;6.856;2024-03-23T05:26:17;12.17;;;3.00;;
19183;SDS011;9724;51.194;6.856;2024-03-23T05:28:42;22.50;;;4.33;;
19183;SDS011;9724;51.194;6.856;2024-03-23T05:31:10;12.73;;;3.03;;
19183;SDS011;9724;51.194;6.856;2024-03-23T05:33:36;11.60;;;3.57;;
19183;SDS011;9724;51.194;6.856;2024-03-23T05:36:04;9.97;;;3.87;;
19183;SDS011;9724;51.194;6.856;2024-03-23T05:38:30;9.47;;;3.23;;
19183;SDS011;9724;51.194;6.856;2024-03-23T05:40:56;18.33;;;3.53;;
19183;SDS011;9724;51.194;6.856;2024-03-23T05:43:23;10.97;;;3.23;;
19183;SDS011;9724;51.194;6.856;2024-03-23T05:45:53;13.60;;;3.63;;
19183;SDS011;9724;51.194;6.856;2024-03-23T05:48:20;15.03;;;3.43;;
19183;SDS011;9724;51.194;6.856;2024-03-23T05:50:46;14.03;;;3.50;;
19183;SDS011;9724;51.194;6.856;2024-03-23T05:53:12;16.23;;;4.43;;
19183;SDS011;9724;51.194;6.856;2024-03-23T05:55:38;19.27;;;4.70;;
19183;SDS011;9724;51.194;6.856;2024-03-23T05:58:04;13.23;;;4.00;;
19183;SDS011;9724;51.194;6.856;2024-03-23T06:00:31;18.20;;;3.77;;
19183;SDS011;9724;51.194;6.856;2024-03-23T06:02:57;20.07;;;4.57;;
19183;SDS011;9724;51.194;6.856;2024-03-23T06:05:24;14.53;;;3.80;;
19183;SDS011;9724;51.194;6.856;2024-03-23T06:07:50;18.20;;;3.83;;
19183;SDS011;9724;51.194;6.856;2024-03-23T06:10:16;15.13;;;3.93;;
19183;SDS011;9724;51.194;6.856;2024-03-23T06:12:42;23.73;;;4.10;;
19183;SDS011;9724;51.194;6.856;2024-03-23T06:15:08;13.93;;;3.97;;
19183;SDS011;9724;51.194;6.856;2024-03-23T06:17:40;14.07;;;3.80;;
19183;SDS011;9724;51.194;6.856;2024-03-23T06:20:06;13.63;;;3.83;;
19183;SDS011;9724;51.194;6.856;2024-03-23T06:22:33;16.63;;;3.97;;
19183;SDS011;9724;51.194;6.856;2024-03-23T06:24:59;13.50;;;3.70;;
19183;SDS011;9724;51.194;6.856;2024-03-23T06:27:25;17.83;;;4.30;;
19183;SDS011;9724;51.194;6.856;2024-03-23T06:29:52;16.13;;;4.43;;
19183;SDS011;9724;51.194;6.856;2024-03-23T06:32:17;13.07;;;3.90;;
19183;SDS011;9724;51.194;6.856;2024-03-23T06:34:44;12.53;;;3.93;;
19183;SDS011;9724;51.194;6.856;2024-03-23T06:37:10;13.93;;;4.17;;
19183;SDS011;9724;51.194;6.856;2024-03-23T06:39:37;13.00;;;4.10;;
19183;SDS011;9724;51.194;6.856;2024-03-23T06:42:03;14.63;;;4.30;;
19183;SDS011;9724;51.194;6.856;2024-03-23T06:44:29;19.57;;;4.20;;
19183;SDS011;9724;51.194;6.856;2024-03-23T06:46:55;13.93;;;4.00;;
19183;SDS011;9724;51.194;6.856;2024-03-23T06:49:22;16.07;;;3.83;;
19183;SDS011;9724;51.194;6.856;2024-03-23T06:51:48;12.67;;;4.37;;
19183;SDS011;9724;51.194;6.856;2024-03-23T06:54:16;14.73;;;5.10;;
19183;SDS011;9724;51.194;6.856;2024-03-23T06:56:42;10.93;;;4.10;;
19183;SDS011;9724;51.194;6.856;2024-03-23T06:59:09;16.37;;;4.60;;
19183;SDS011;9724;51.194;6.856;2024-03-23T07:01:35;13.50;;;4.50;;
19183;SDS011;9724;51.194;6.856;2024-03-23T07:04:02;10.90;;;3.93;;
19183;SDS011;9724;51.194;6.856;2024-03-23T07:06:29;12.30;;;4.20;;
19183;SDS011;9724;51.194;6.856;2024-03-23T07:08:55;12.53;;;4.03;;
19183;SDS011;9724;51.194;6.856;2024-03-23T07:11:22;12.23;;;4.10;;
19183;SDS011;9724;51.194;6.856;2024-03-23T07:13:49;11.97;;;4.07;;
19183;SDS011;9724;51.194;6.856;2024-03-23T07:16:16;9.63;;;3.90;;
19183;SDS011;9724;51.194;6.856;2024-03-23T07:18:42;16.83;;;4.70;;
19183;SDS011;9724;51.194;6.856;2024-03-23T07:21:08;17.93;;;4.00;;
19183;SDS011;9724;51.194;6.856;2024-03-23T07:23:34;17.40;;;4.70;;
19183;SDS011;9724;51.194;6.856;2024-03-23T07:26:01;12.33;;;4.30;;
19183;SDS011;9724;51.194;6.856;2024-03-23T07:28:28;13.20;;;4.03;;
19183;SDS011;9724;51.194;6.856;2024-03-23T07:31:04;9.77;;;3.93;;
19183;SDS011;9724;51.194;6.856;2024-03-23T07:33:31;11.37;;;3.90;;
19183;SDS011;9724;51.194;6.856;2024-03-23T07:35:57;13.87;;;3.83;;
19183;SDS011;9724;51.194;6.856;2024-03-23T07:38:26;11.03;;;3.67;;
19183;SDS011;9724;51.194;6.856;2024-03-23T07:40:52;13.97;;;4.10;;
19183;SDS011;9724;51.194;6.856;2024-03-23T07:43:21;11.67;;;4.10;;
19183;SDS011;9724;51.194;6.856;2024-03-23T07:45:51;12.77;;;4.00;;
19183;SDS011;9724;51.194;6.856;2024-03-23T07:48:18;12.17;;;3.63;;
19183;SDS011;9724;51.194;6.856;2024-03-23T07:50:44;12.67;;;3.70;;
19183;SDS011;9724;51.194;6.856;2024-03-23T07:53:10;7.70;;;3.40;;
19183;SDS011;9724;51.194;6.856;2024-03-23T07:55:36;15.37;;;3.87;;
19183;SDS011;9724;51.194;6.856;2024-03-23T07:58:03;13.60;;;3.93;;
19183;SDS011;9724;51.194;6.856;2024-03-23T08:00:29;19.10;;;4.40;;
19183;SDS011;9724;51.194;6.856;2024-03-23T08:02:55;17.43;;;4.80;;
19183;SDS011;9724;51.194;6.856;2024-03-23T08:05:22;12.33;;;4.50;;
19183;SDS011;9724;51.194;6.856;2024-03-23T08:07:50;14.67;;;4.80;;
19183;SDS011;9724;51.194;6.856;2024-03-23T08:10:15;12.90;;;4.50;;
19183;SDS011;9724;51.194;6.856;2024-03-23T08:12:45;13.37;;;4.30;;
19183;SDS011;9724;51.194;6.856;2024-03-23T08:15:14;16.17;;;5.30;;
19183;SDS011;9724;51.194;6.856;2024-03-23T08:17:40;17.97;;;4.80;;
19183;SDS011;9724;51.194;6.856;2024-03-23T08:20:07;15.93;;;5.30;;
19183;SDS011;9724;51.194;6.856;2024-03-23T08:22:34;17.90;;;4.50;;
19183;SDS011;9724;51.194;6.856;2024-03-23T08:25:00;9.67;;;4.07;;
19183;SDS011;9724;51.194;6.856;2024-03-23T08:27:26;16.33;;;4.07;;
19183;SDS011;9724;51.194;6.856;2024-03-23T08:29:52;13.00;;;3.90;;
19183;SDS011;9724;51.194;6.856;2024-03-23T08:32:19;15.10;;;4.00;;
19183;SDS011;9724;51.194;6.856;2024-03-23T08:34:44;14.17;;;4.33;;
19183;SDS011;9724;51.194;6.856;2024-03-23T08:37:11;10.00;;;3.60;;
19183;SDS011;9724;51.194;6.856;2024-03-23T08:39:37;13.97;;;3.53;;
19183;SDS011;9724;51.194;6.856;2024-03-23T08:42:04;14.80;;;4.13;;
19183;SDS011;9724;51.194;6.856;2024-03-23T08:44:30;11.40;;;3.70;;
19183;SDS011;9724;51.194;6.856;2024-03-23T08:46:56;13.60;;;3.63;;
19183;SDS011;9724;51.194;6.856;2024-03-23T08:49:22;16.13;;;3.37;;
19183;SDS011;9724;51.194;6.856;2024-03-23T08:51:52;10.70;;;2.73;;
19183;SDS011;9724;51.194;6.856;2024-03-23T08:54:17;13.70;;;2.70;;
19183;SDS011;9724;51.194;6.856;2024-03-23T08:56:46;15.23;;;3.27;;
19183;SDS011;9724;51.194;6.856;2024-03-23T08:59:12;12.10;;;2.80;;
19183;SDS011;9724;51.194;6.856;2024-03-23T09:01:38;16.13;;;3.07;;
19183;SDS011;9724;51.194;6.856;2024-03-23T09:04:04;8.97;;;2.53;;
19183;SDS011;9724;51.194;6.856;2024-03-23T09:06:30;8.90;;;2.63;;
19183;SDS011;9724;51.194;6.856;2024-03-23T09:08:56;7.43;;;2.40;;
19183;SDS011;9724;51.194;6.856;2024-03-23T09:11:22;7.73;;;2.93;;
19183;SDS011;9724;51.194;6.856;2024-03-23T09:13:49;10.10;;;2.57;;
19183;SDS011;9724;51.194;6.856;2024-03-23T09:16:15;14.70;;;2.80;;
19183;SDS011;9724;51.194;6.856;2024-03-23T09:18:41;12.13;;;3.10;;
19183;SDS011;9724;51.194;6.856;2024-03-23T09:21:10;10.80;;;2.87;;
19183;SDS011;9724;51.194;6.856;2024-03-23T09:23:37;12.97;;;3.13;;
19183;SDS011;9724;51.194;6.856;2024-03-23T09:26:03;9.73;;;2.83;;
19183;SDS011;9724;51.194;6.856;2024-03-23T09:28:30;7.80;;;2.73;;
19183;SDS011;9724;51.194;6.856;2024-03-23T09:31:02;13.20;;;3.50;;
19183;SDS011;9724;51.194;6.856;2024-03-23T09:33:28;16.80;;;3.77;;
19183;SDS011;9724;51.194;6.856;2024-03-23T09:35:54;9.93;;;3.20;;
19183;SDS011;9724;51.194;6.856;2024-03-23T09:38:21;14.23;;;3.07;;
19183;SDS011;9724;51.194;6.856;2024-03-23T09:40:48;7.37;;;2.90;;
19183;SDS011;9724;51.194;6.856;2024-03-23T09:43:15;6.37;;;2.77;;
19183;SDS011;9724;51.194;6.856;2024-03-23T09:45:41;7.47;;;2.83;;
19183;SDS011;9724;51.194;6.856;2024-03-23T09:48:09;8.07;;;3.00;;
19183;SDS011;9724;51.194;6.856;2024-03-23T09:50:36;10.30;;;3.00;;
19183;SDS011;9724;51.194;6.856;2024-03-23T09:53:02;12.07;;;3.30;;
19183;SDS011;9724;51.194;6.856;2024-03-23T09:55:29;8.67;;;3.00;;
19183;SDS011;9724;51.194;6.856;2024-03-23T09:57:55;12.80;;;3.40;;
19183;SDS011;9724;51.194;6.856;2024-03-23T10:00:21;4.70;;;2.50;;
19183;SDS011;9724;51.194;6.856;2024-03-23T10:02:47;8.27;;;2.80;;
19183;SDS011;9724;51.194;6.856;2024-03-23T10:05:20;10.77;;;2.70;;
19183;SDS011;9724;51.194;6.856;2024-03-23T10:07:51;6.97;;;2.73;;
19183;SDS011;9724;51.194;6.856;2024-03-23T10:10:17;9.60;;;2.60;;
19183;SDS011;9724;51.194;6.856;2024-03-23T10:12:44;15.03;;;2.63;;
19183;SDS011;9724;51.194;6.856;2024-03-23T10:15:15;7.93;;;2.47;;
19183;SDS011;9724;51.194;6.856;2024-03-23T10:17:45;9.30;;;2.40;;
19183;SDS011;9724;51.194;6.856;2024-03-23T10:20:11;5.47;;;2.00;;
19183;SDS011;9724;51.194;6.856;2024-03-23T10:22:37;6.53;;;2.30;;
19183;SDS011;9724;51.194;6.856;2024-03-23T10:25:07;9.70;;;2.33;;
19183;SDS011;9724;51.194;6.856;2024-03-23T10:27:33;8.90;;;2.27;;
19183;SDS011;9724;51.194;6.856;2024-03-23T10:30:07;14.10;;;2.60;;
19183;SDS011;9724;51.194;6.856;2024-03-23T10:32:34;7.93;;;2.03;;
19183;SDS011;9724;51.194;6.856;2024-03-23T10:37:44;6.87;;;1.20;;
19183;SDS011;9724;51.194;6.856;2024-03-23T10:40:13;3.17;;;1.00;;
19183;SDS011;9724;51.194;6.856;2024-03-23T10:42:39;4.83;;;1.17;;
19183;SDS011;9724;51.194;6.856;2024-03-23T10:45:06;2.03;;;1.20;;
19183;SDS011;9724;51.194;6.856;2024-03-23T10:47:34;2.80;;;1.07;;
19183;SDS011;9724;51.194;6.856;2024-03-23T10:50:01;1.23;;;0.90;;
19183;SDS011;9724;51.194;6.856;2024-03-23T10:52:27;1.57;;;1.43;;
19183;SDS011;9724;51.194;6.856;2024-03-23T10:54:54;6.80;;;1.50;;
19183;SDS011;9724;51.194;6.856;2024-03-23T10:57:23;4.57;;;1.30;;
19183;SDS011;9724;51.194;6.856;2024-03-23T10:59:53;4.60;;;1.13;;
19183;SDS011;9724;51.194;6.856;2024-03-23T11:02:19;2.50;;;1.50;;
19183;SDS011;9724;51.194;6.856;2024-03-23T11:04:46;2.90;;;1.13;;
19183;SDS011;9724;51.194;6.856;2024-03-23T11:07:29;4.30;;;1.60;;
19183;SDS011;9724;51.194;6.856;2024-03-23T11:09:57;7.33;;;1.43;;
19183;SDS011;9724;51.194;6.856;2024-03-23T11:12:27;3.13;;;1.30;;
19183;SDS011;9724;51.194;6.856;2024-03-23T11:14:57;2.87;;;1.10;;
19183;SDS011;9724;51.194;6.856;2024-03-23T11:17:25;6.37;;;1.40;;
19183;SDS011;9724;51.194;6.856;2024-03-23T11:19:52;7.07;;;1.30;;
19183;SDS011;9724;51.194;6.856;2024-03-23T11:25:11;3.30;;;1.57;;
19183;SDS011;9724;51.194;6.856;2024-03-23T11:27:38;7.33;;;1.57;;
19183;SDS011;9724;51.194;6.856;2024-03-23T11:30:11;1.10;;;1.07;;
19183;SDS011;9724;51.194;6.856;2024-03-23T11:32:38;2.30;;;1.30;;
19183;SDS011;9724;51.194;6.856;2024-03-23T11:35:05;7.33;;;1.63;;
19183;SDS011;9724;51.194;6.856;2024-03-23T11:37:32;7.10;;;1.60;;
19183;SDS011;9724;51.194;6.856;2024-03-23T11:39:58;2.73;;;1.53;;
19183;SDS011;9724;51.194;6.856;2024-03-23T11:42:24;2.77;;;1.20;;
19183;SDS011;9724;51.194;6.856;2024-03-23T11:44:51;1.73;;;1.20;;
19183;SDS011;9724;51.194;6.856;2024-03-23T11:47:17;2.13;;;1.37;;
19183;SDS011;9724;51.194;6.856;2024-03-23T11:49:43;2.33;;;1.27;;
19183;SDS011;9724;51.194;6.856;2024-03-23T11:52:12;3.97;;;1.63;;
19183;SDS011;9724;51.194;6.856;2024-03-23T11:54:39;3.80;;;1.50;;
19183;SDS011;9724;51.194;6.856;2024-03-23T11:57:07;4.93;;;1.60;;
19183;SDS011;9724;51.194;6.856;2024-03-23T11:59:35;3.87;;;1.43;;
19183;SDS011;9724;51.194;6.856;2024-03-23T12:02:05;0.97;;;0.77;;
19183;SDS011;9724;51.194;6.856;2024-03-23T12:04:32;9.60;;;1.00;;
19183;SDS011;9724;51.194;6.856;2024-03-23T12:07:11;1.50;;;0.60;;
19183;SDS011;9724;51.194;6.856;2024-03-23T12:09:38;1.23;;;0.70;;
19183;SDS011;9724;51.194;6.856;2024-03-23T12:12:05;0.60;;;0.50;;
19183;SDS011;9724;51.194;6.856;2024-03-23T12:14:36;1.17;;;0.63;;
19183;SDS011;9724;51.194;6.856;2024-03-23T12:17:09;0.93;;;0.83;;
19183;SDS011;9724;51.194;6.856;2024-03-23T12:19:36;0.70;;;0.70;;
19183;SDS011;9724;51.194;6.856;2024-03-23T12:22:02;4.97;;;1.10;;
19183;SDS011;9724;51.194;6.856;2024-03-23T12:24:29;2.97;;;1.03;;
19183;SDS011;9724;51.194;6.856;2024-03-23T12:26:55;6.23;;;0.70;;
19183;SDS011;9724;51.194;6.856;2024-03-23T12:29:24;3.47;;;1.00;;
19183;SDS011;9724;51.194;6.856;2024-03-23T12:31:53;2.97;;;1.03;;
19183;SDS011;9724;51.194;6.856;2024-03-23T12:34:19;2.10;;;1.80;;
19183;SDS011;9724;51.194;6.856;2024-03-23T12:36:45;4.03;;;1.10;;
19183;SDS011;9724;51.194;6.856;2024-03-23T12:39:11;6.33;;;1.70;;
19183;SDS011;9724;51.194;6.856;2024-03-23T12:41:37;4.73;;;1.40;;
19183;SDS011;9724;51.194;6.856;2024-03-23T12:44:03;5.30;;;1.27;;
19183;SDS011;9724;51.194;6.856;2024-03-23T12:46:29;3.57;;;1.10;;
19183;SDS011;9724;51.194;6.856;2024-03-23T12:48:57;1.17;;;0.80;;
19183;SDS011;9724;51.194;6.856;2024-03-23T12:51:23;1.37;;;0.60;;
19183;SDS011;9724;51.194;6.856;2024-03-23T12:53:49;1.03;;;0.70;;
19183;SDS011;9724;51.194;6.856;2024-03-23T12:56:15;1.53;;;0.70;;
19183;SDS011;9724;51.194;6.856;2024-03-23T12:58:44;0.80;;;0.67;;
19183;SDS011;9724;51.194;6.856;2024-03-23T13:01:10;3.23;;;0.90;;
19183;SDS011;9724;51.194;6.856;2024-03-23T13:03:36;2.10;;;0.77;;
19183;SDS011;9724;51.194;6.856;2024-03-23T13:06:03;2.73;;;0.70;;
19183;SDS011;9724;51.194;6.856;2024-03-23T13:08:33;4.07;;;0.90;;
19183;SDS011;9724;51.194;6.856;2024-03-23T13:10:59;1.73;;;1.00;;
19183;SDS011;9724;51.194;6.856;2024-03-23T13:13:25;2.40;;;0.80;;
19183;SDS011;9724;51.194;6.856;2024-03-23T13:15:51;4.00;;;1.10;;
19183;SDS011;9724;51.194;6.856;2024-03-23T13:18:17;4.20;;;1.13;;
19183;SDS011;9724;51.194;6.856;2024-03-23T13:20:43;0.77;;;0.70;;
19183;SDS011;9724;51.194;6.856;2024-03-23T13:23:10;3.57;;;0.73;;
19183;SDS011;9724;51.194;6.856;2024-03-23T13:25:35;2.03;;;0.63;;
19183;SDS011;9724;51.194;6.856;2024-03-23T13:28:02;2.50;;;0.70;;
19183;SDS011;9724;51.194;6.856;2024-03-23T13:30:29;1.57;;;0.70;;
19183;SDS011;9724;51.194;6.856;2024-03-23T13:32:58;2.33;;;0.90;;
19183;SDS011;9724;51.194;6.856;2024-03-23T13:35:24;2.57;;;0.67;;
19183;SDS011;9724;51.194;6.856;2024-03-23T13:37:50;2.93;;;0.63;;
19183;SDS011;9724;51.194;6.856;2024-03-23T13:40:16;2.67;;;1.00;;
19183;SDS011;9724;51.194;6.856;2024-03-23T13:42:45;2.20;;;1.00;;
19183;SDS011;9724;51.194;6.856;2024-03-23T13:45:11;5.90;;;1.30;;
19183;SDS011;9724;51.194;6.856;2024-03-23T13:47:43;3.80;;;1.07;;
19183;SDS011;9724;51.194;6.856;2024-03-23T13:50:09;2.50;;;1.10;;
19183;SDS011;9724;51.194;6.856;2024-03-23T13:52:36;3.17;;;0.97;;
19183;SDS011;9724;51.194;6.856;2024-03-23T13:55:02;4.50;;;1.33;;
19183;SDS011;9724;51.194;6.856;2024-03-23T13:57:29;3.97;;;1.40;;
19183;SDS011;9724;51.194;6.856;2024-03-23T13:59:55;3.60;;;1.30;;
19183;SDS011;9724;51.194;6.856;2024-03-23T14:02:21;6.60;;;1.43;;
19183;SDS011;9724;51.194;6.856;2024-03-23T14:04:47;7.20;;;1.30;;
19183;SDS011;9724;51.194;6.856;2024-03-23T14:07:14;1.83;;;1.17;;
19183;SDS011;9724;51.194;6.856;2024-03-23T14:09:42;4.40;;;1.40;;
19183;SDS011;9724;51.194;6.856;2024-03-23T14:12:08;4.77;;;1.20;;
19183;SDS011;9724;51.194;6.856;2024-03-23T14:14:35;5.20;;;1.30;;
19183;SDS011;9724;51.194;6.856;2024-03-23T14:17:01;4.80;;;1.30;;
19183;SDS011;9724;51.194;6.856;2024-03-23T14:19:27;4.57;;;1.23;;
19183;SDS011;9724;51.194;6.856;2024-03-23T14:21:54;1.60;;;1.30;;
19183;SDS011;9724;51.194;6.856;2024-03-23T14:24:20;6.00;;;1.80;;
19183;SDS011;9724;51.194;6.856;2024-03-23T14:26:46;5.60;;;1.50;;
19183;SDS011;9724;51.194;6.856;2024-03-23T14:29:13;5.33;;;1.30;;
19183;SDS011;9724;51.194;6.856;2024-03-23T14:31:40;2.73;;;1.40;;
19183;SDS011;9724;51.194;6.856;2024-03-23T14:34:06;3.27;;;1.37;;
19183;SDS011;9724;51.194;6.856;2024-03-23T14:36:32;5.73;;;1.60;;
19183;SDS011;9724;51.194;6.856;2024-03-23T14:38:58;1.73;;;1.03;;
19183;SDS011;9724;51.194;6.856;2024-03-23T14:41:24;4.67;;;1.17;;
19183;SDS011;9724;51.194;6.856;2024-03-23T14:43:51;7.83;;;1.20;;
19183;SDS011;9724;51.194;6.856;2024-03-23T14:46:19;1.77;;;1.00;;
19183;SDS011;9724;51.194;6.856;2024-03-23T14:48:46;2.40;;;1.30;;
19183;SDS011;9724;51.194;6.856;2024-03-23T14:51:12;2.23;;;0.90;;
19183;SDS011;9724;51.194;6.856;2024-03-23T14:53:39;3.10;;;0.93;;
19183;SDS011;9724;51.194;6.856;2024-03-23T14:56:06;3.57;;;0.93;;
19183;SDS011;9724;51.194;6.856;2024-03-23T14:58:33;1.57;;;1.10;;
19183;SDS011;9724;51.194;6.856;2024-03-23T15:01:00;3.50;;;0.90;;
19183;SDS011;9724;51.194;6.856;2024-03-23T15:03:27;2.17;;;0.90;;
19183;SDS011;9724;51.194;6.856;2024-03-23T15:05:54;3.13;;;1.10;;
19183;SDS011;9724;51.194;6.856;2024-03-23T15:08:21;3.70;;;1.10;;
19183;SDS011;9724;51.194;6.856;2024-03-23T15:10:47;3.03;;;0.80;;
19183;SDS011;9724;51.194;6.856;2024-03-23T15:13:13;2.03;;;1.20;;
19183;SDS011;9724;51.194;6.856;2024-03-23T15:15:40;1.00;;;1.00;;
19183;SDS011;9724;51.194;6.856;2024-03-23T15:18:09;4.03;;;1.10;;
19183;SDS011;9724;51.194;6.856;2024-03-23T15:20:35;1.43;;;0.80;;
19183;SDS011;9724;51.194;6.856;2024-03-23T15:23:02;2.93;;;1.10;;
19183;SDS011;9724;51.194;6.856;2024-03-23T15:25:28;1.37;;;1.27;;
19183;SDS011;9724;51.194;6.856;2024-03-23T15:27:54;1.43;;;1.00;;
19183;SDS011;9724;51.194;6.856;2024-03-23T15:30:27;3.70;;;1.13;;
19183;SDS011;9724;51.194;6.856;2024-03-23T15:32:53;2.70;;;0.90;;
19183;SDS011;9724;51.194;6.856;2024-03-23T15:35:19;2.77;;;0.80;;
19183;SDS011;9724;51.194;6.856;2024-03-23T15:37:48;1.30;;;1.03;;
19183;SDS011;9724;51.194;6.856;2024-03-23T15:40:15;2.90;;;0.83;;
19183;SDS011;9724;51.194;6.856;2024-03-23T15:42:41;3.30;;;1.13;;
19183;SDS011;9724;51.194;6.856;2024-03-23T15:45:07;2.60;;;1.20;;
19183;SDS011;9724;51.194;6.856;2024-03-23T15:47:35;2.07;;;1.27;;
19183;SDS011;9724;51.194;6.856;2024-03-23T15:50:01;4.03;;;1.50;;
19183;SDS011;9724;51.194;6.856;2024-03-23T15:52:28;3.20;;;1.10;;